createdAt,value
2023-01-29T00:00:10.276Z,98.49
2023-01-29T00:02:58.625Z,98.65
2023-01-29T00:05:28.785Z,98.62
2023-01-29T00:07:57.704Z,98.76
2023-01-29T00:10:29.849Z,98.30
2023-01-29T00:12:58.047Z,98.06
2023-01-29T00:15:26.413Z,98.34
2023-01-29T00:17:54.526Z,98.24
2023-01-29T00:20:22.926Z,98.49
2023-01-29T00:22:52.410Z,98.31
2023-01-29T00:25:20.889Z,98.29
2023-01-29T00:27:49.377Z,98.34
2023-01-29T00:30:26.402Z,98.00
2023-01-29T00:32:54.898Z,97.66
2023-01-29T00:35:23.290Z,98.11
2023-01-29T00:37:52.826Z,98.20
2023-01-29T00:40:21.371Z,98.38
2023-01-29T00:43:17.136Z,98.71
2023-01-29T00:45:45.838Z,98.99
2023-01-29T00:48:13.916Z,99.48
2023-01-29T00:50:42.525Z,99.74
2023-01-29T00:53:12.164Z,99.97
2023-01-29T00:55:40.574Z,100.00
2023-01-29T00:58:08.726Z,100.00
2023-01-29T01:00:37.247Z,100.00
2023-01-29T01:03:07.397Z,100.00
2023-01-29T01:05:36.994Z,100.00
2023-01-29T01:08:28.887Z,100.00
2023-01-29T01:11:02.609Z,100.00
2023-01-29T01:13:32.447Z,100.00
2023-01-29T01:16:01.599Z,100.00
2023-01-29T01:18:31.808Z,100.00
2023-01-29T01:21:00.341Z,100.00
2023-01-29T01:23:28.507Z,100.00
2023-01-29T01:25:56.894Z,100.00
2023-01-29T01:28:26.703Z,100.00
2023-01-29T01:30:55.573Z,100.00
2023-01-29T01:33:23.769Z,100.00
2023-01-29T01:35:52.212Z,100.00
2023-01-29T01:38:20.420Z,100.00
2023-01-29T01:40:48.816Z,100.00
2023-01-29T01:43:16.908Z,100.00
2023-01-29T01:45:46.880Z,100.00
2023-01-29T01:48:19.405Z,100.00
2023-01-29T01:50:52.103Z,100.00
2023-01-29T01:53:25.364Z,100.00
2023-01-29T01:55:57.401Z,100.00
2023-01-29T01:58:29.168Z,100.00
2023-01-29T02:00:59.232Z,100.00
2023-01-29T02:03:49.470Z,100.00
2023-01-29T02:06:35.672Z,100.00
2023-01-29T02:09:28.381Z,100.00
2023-01-29T02:11:57.454Z,100.00
2023-01-29T02:14:26.499Z,100.00
2023-01-29T02:16:56.607Z,100.00
2023-01-29T02:19:33.951Z,100.00
2023-01-29T02:22:45.435Z,100.00
2023-01-29T02:25:42.236Z,100.00
2023-01-29T02:28:21.610Z,100.00
2023-01-29T02:31:00.137Z,100.00
2023-01-29T02:33:37.394Z,100.00
2023-01-29T02:36:17.426Z,100.00
2023-01-29T02:38:56.797Z,100.00
2023-01-29T02:41:31.522Z,100.00
2023-01-29T02:44:09.738Z,100.00
2023-01-29T02:46:42.419Z,100.00
2023-01-29T02:49:18.219Z,100.00
2023-01-29T02:51:53.001Z,100.00
2023-01-29T02:54:30.275Z,100.00
2023-01-29T02:57:01.836Z,100.00
2023-01-29T02:59:37.816Z,100.00
2023-01-29T03:02:12.068Z,100.00
2023-01-29T03:04:46.545Z,100.00
2023-01-29T03:07:41.219Z,100.00
2023-01-29T03:10:17.208Z,100.00
2023-01-29T03:12:48.893Z,100.00
2023-01-29T03:15:26.757Z,100.00
2023-01-29T03:18:01.660Z,100.00
2023-01-29T03:20:36.223Z,100.00
2023-01-29T03:23:10.509Z,100.00
2023-01-29T03:26:00.153Z,100.00
2023-01-29T03:28:47.356Z,100.00
2023-01-29T03:31:53.620Z,100.00
2023-01-29T03:34:28.648Z,100.00
2023-01-29T03:37:01.147Z,100.00
2023-01-29T03:39:31.961Z,100.00
2023-01-29T03:42:06.473Z,100.00
2023-01-29T03:44:40.656Z,100.00
2023-01-29T03:47:20.131Z,100.00
2023-01-29T03:49:59.023Z,100.00
2023-01-29T03:52:35.138Z,100.00
2023-01-29T03:55:11.734Z,100.00
2023-01-29T03:57:45.557Z,100.00
2023-01-29T04:00:19.746Z,100.00
2023-01-29T04:02:55.411Z,100.00
2023-01-29T04:05:26.973Z,100.00
2023-01-29T04:08:03.833Z,100.00
2023-01-29T04:10:36.242Z,100.00
2023-01-29T04:13:09.052Z,100.00
2023-01-29T04:15:43.779Z,100.00
2023-01-29T04:18:13.895Z,100.00
2023-01-29T04:20:43.330Z,100.00
2023-01-29T04:23:21.947Z,100.00
2023-01-29T04:26:15.505Z,100.00
2023-01-29T04:28:55.771Z,100.00
2023-01-29T04:31:28.400Z,100.00
2023-01-29T04:34:08.263Z,100.00
2023-01-29T04:36:53.999Z,100.00
2023-01-29T04:39:27.361Z,100.00
2023-01-29T04:42:02.858Z,100.00
2023-01-29T04:44:39.549Z,100.00
2023-01-29T04:47:21.202Z,100.00
2023-01-29T04:50:02.762Z,100.00
2023-01-29T04:52:40.590Z,100.00
2023-01-29T04:55:15.235Z,100.00
2023-01-29T04:57:49.699Z,100.00
2023-01-29T05:00:22.306Z,100.00
2023-01-29T05:02:51.159Z,100.00
2023-01-29T05:05:22.480Z,100.00
2023-01-29T05:07:51.689Z,100.00
2023-01-29T05:10:21.610Z,100.00
2023-01-29T05:12:56.386Z,100.00
2023-01-29T05:15:28.403Z,100.00
2023-01-29T05:18:01.928Z,100.00
2023-01-29T05:20:33.420Z,100.00
2023-01-29T05:23:01.864Z,100.00
2023-01-29T05:25:32.631Z,100.00
2023-01-29T05:28:06.256Z,100.00
2023-01-29T05:30:36.485Z,100.00
2023-01-29T05:33:05.972Z,100.00
2023-01-29T05:35:35.795Z,100.00
2023-01-29T05:38:03.943Z,100.00
2023-01-29T05:40:32.374Z,100.00
2023-01-29T05:43:00.503Z,100.00
2023-01-29T05:45:29.116Z,100.00
2023-01-29T05:47:58.214Z,100.00
2023-01-29T05:50:27.657Z,100.00
2023-01-29T05:53:01.149Z,100.00
2023-01-29T05:55:30.502Z,100.00
2023-01-29T05:57:59.007Z,100.00
2023-01-29T06:00:27.849Z,100.00
2023-01-29T06:02:56.803Z,100.00
2023-01-29T06:05:25.581Z,100.00
2023-01-29T06:07:53.774Z,100.00
2023-01-29T06:10:24.871Z,100.00
2023-01-29T06:12:53.145Z,100.00
2023-01-29T06:15:21.624Z,100.00
2023-01-29T06:17:49.721Z,100.00
2023-01-29T06:20:18.704Z,100.00
2023-01-29T06:22:47.271Z,100.00
2023-01-29T06:25:15.843Z,100.00
2023-01-29T06:27:45.982Z,100.00
2023-01-29T06:30:15.704Z,100.00
2023-01-29T06:32:44.144Z,100.00
2023-01-29T06:35:12.812Z,100.00
2023-01-29T06:37:40.969Z,100.00
2023-01-29T06:40:10.446Z,100.00
2023-01-29T06:42:38.594Z,100.00
2023-01-29T06:45:10.711Z,100.00
2023-01-29T06:47:38.984Z,100.00
2023-01-29T06:50:08.464Z,100.00
2023-01-29T06:52:36.777Z,100.00
2023-01-29T06:55:05.813Z,100.00
2023-01-29T06:57:34.042Z,100.00
2023-01-29T07:00:02.416Z,100.00
2023-01-29T07:02:32.282Z,100.00
2023-01-29T07:05:00.701Z,100.00
2023-01-29T07:07:28.868Z,100.00
2023-01-29T07:09:57.254Z,100.00
2023-01-29T07:12:25.708Z,100.00
2023-01-29T07:14:56.308Z,100.00
2023-01-29T07:17:24.488Z,100.00
2023-01-29T07:19:56.523Z,100.00
2023-01-29T07:22:24.719Z,100.00
2023-01-29T07:24:53.352Z,100.00
2023-01-29T07:27:21.483Z,100.00
2023-01-29T07:29:49.950Z,100.00
2023-01-29T07:32:18.230Z,100.00
2023-01-29T07:34:46.806Z,100.00
2023-01-29T07:37:16.267Z,100.00
2023-01-29T07:39:44.699Z,100.00
2023-01-29T07:42:12.843Z,100.00
2023-01-29T07:44:41.181Z,100.00
2023-01-29T07:47:09.402Z,100.00
2023-01-29T07:49:37.775Z,100.00
2023-01-29T07:52:06.594Z,100.00
2023-01-29T07:54:36.482Z,100.00
2023-01-29T07:57:04.678Z,100.00
2023-01-29T07:59:33.063Z,100.00
2023-01-29T08:02:01.235Z,100.00
2023-01-29T08:04:29.715Z,100.00
2023-01-29T08:06:57.951Z,100.00
2023-01-29T08:09:26.724Z,100.00
2023-01-29T08:11:56.577Z,100.00
2023-01-29T08:14:25.178Z,100.00
2023-01-29T08:16:53.453Z,100.00
2023-01-29T08:19:22.022Z,100.00
2023-01-29T08:21:50.472Z,100.00
2023-01-29T08:24:19.214Z,100.00
2023-01-29T08:26:47.669Z,100.00
2023-01-29T08:29:18.018Z,100.00
2023-01-29T08:31:46.138Z,100.00
2023-01-29T08:34:14.610Z,100.00
2023-01-29T08:36:42.813Z,100.00
2023-01-29T08:39:11.298Z,100.00
2023-01-29T08:41:39.482Z,100.00
2023-01-29T08:44:07.870Z,100.00
2023-01-29T08:46:40.716Z,100.00
2023-01-29T08:49:10.645Z,100.00
2023-01-29T08:51:38.726Z,100.00
2023-01-29T08:54:07.602Z,100.00
2023-01-29T08:56:35.735Z,100.00
2023-01-29T08:59:04.228Z,100.00
2023-01-29T09:01:32.629Z,100.00
2023-01-29T09:04:02.480Z,100.00
2023-01-29T09:06:30.423Z,100.00
2023-01-29T09:08:58.809Z,100.00
2023-01-29T09:11:26.957Z,100.00
2023-01-29T09:13:55.357Z,100.00
2023-01-29T09:16:23.765Z,100.00
2023-01-29T09:18:52.271Z,100.00
2023-01-29T09:21:22.375Z,100.00
2023-01-29T09:23:51.217Z,100.00
2023-01-29T09:26:19.384Z,100.00
2023-01-29T09:28:47.790Z,100.00
2023-01-29T09:31:15.976Z,100.00
2023-01-29T09:33:45.153Z,100.00
2023-01-29T09:36:15.939Z,100.00
2023-01-29T09:38:46.070Z,100.00
2023-01-29T09:41:28.795Z,100.00
2023-01-29T09:44:01.667Z,100.00
2023-01-29T09:46:37.074Z,100.00
2023-01-29T09:49:10.244Z,100.00
2023-01-29T09:51:42.561Z,100.00
2023-01-29T09:54:23.021Z,100.00
2023-01-29T09:56:54.989Z,100.00
2023-01-29T09:59:27.808Z,100.00
2023-01-29T10:02:05.789Z,100.00
2023-01-29T10:04:52.554Z,100.00
2023-01-29T10:07:46.023Z,100.00
2023-01-29T10:10:31.075Z,100.00
2023-01-29T10:13:07.656Z,100.00
2023-01-29T10:15:47.864Z,100.00
2023-01-29T10:18:50.475Z,100.00
2023-01-29T10:21:33.444Z,100.00
2023-01-29T10:24:14.530Z,100.00
2023-01-29T10:26:44.397Z,100.00
2023-01-29T10:29:17.924Z,100.00
2023-01-29T10:31:50.895Z,100.00
2023-01-29T10:34:29.059Z,100.00
2023-01-29T10:36:57.754Z,100.00
2023-01-29T10:39:27.878Z,100.00
2023-01-29T10:42:13.045Z,100.00
2023-01-29T10:44:58.684Z,100.00
2023-01-29T10:47:56.040Z,100.00
2023-01-29T10:50:37.794Z,100.00
2023-01-29T10:53:20.530Z,100.00
2023-01-29T10:56:02.483Z,100.00
2023-01-29T10:58:42.443Z,100.00
2023-01-29T11:01:11.950Z,100.00
2023-01-29T11:03:40.439Z,100.00
2023-01-29T11:06:18.593Z,100.00
2023-01-29T11:08:53.283Z,100.00
2023-01-29T11:11:23.493Z,100.00
2023-01-29T11:13:58.694Z,100.00
2023-01-29T11:16:28.616Z,100.00
2023-01-29T11:18:59.513Z,100.00
2023-01-29T11:21:29.717Z,100.00
2023-01-29T11:24:12.815Z,100.00
2023-01-29T11:26:43.349Z,100.00
2023-01-29T11:29:38.329Z,100.00
2023-01-29T11:32:12.444Z,100.00
2023-01-29T11:34:59.741Z,100.00
2023-01-29T11:37:34.720Z,100.00
2023-01-29T11:40:07.119Z,100.00
2023-01-29T11:42:35.325Z,100.00
2023-01-29T11:45:26.025Z,100.00
2023-01-29T11:47:56.831Z,100.00
2023-01-29T11:50:28.032Z,100.00
2023-01-29T11:52:56.692Z,100.00
2023-01-29T11:55:29.662Z,100.00
2023-01-29T11:58:05.804Z,100.00
2023-01-29T12:00:37.510Z,100.00
2023-01-29T12:03:13.996Z,100.00
2023-01-29T12:05:53.945Z,100.00
2023-01-29T12:08:24.134Z,100.00
2023-01-29T12:10:52.595Z,100.00
2023-01-29T12:13:28.302Z,100.00
2023-01-29T12:16:16.864Z,100.00
2023-01-29T12:18:51.032Z,100.00
2023-01-29T12:21:24.153Z,100.00
2023-01-29T12:23:59.525Z,100.00
2023-01-29T12:26:35.036Z,100.00
2023-01-29T12:29:20.759Z,100.00
2023-01-29T12:31:56.530Z,100.00
2023-01-29T12:34:32.099Z,100.00
2023-01-29T12:37:05.948Z,100.00
2023-01-29T12:39:34.059Z,100.00
2023-01-29T12:42:07.743Z,100.00
2023-01-29T12:44:42.769Z,100.00
2023-01-29T12:47:17.992Z,100.00
2023-01-29T12:49:52.422Z,100.00
2023-01-29T12:52:29.338Z,100.00
2023-01-29T12:55:06.467Z,100.00
2023-01-29T12:57:43.645Z,100.00
2023-01-29T13:00:16.746Z,100.00
2023-01-29T13:02:55.662Z,100.00
2023-01-29T13:05:29.683Z,100.00
2023-01-29T13:08:04.289Z,100.00
2023-01-29T13:10:37.773Z,100.00
2023-01-29T13:13:15.299Z,100.00
2023-01-29T13:15:45.605Z,100.00
2023-01-29T13:18:34.491Z,100.00
2023-01-29T13:21:03.614Z,100.00
2023-01-29T13:23:35.934Z,100.00
2023-01-29T13:26:05.716Z,100.00
2023-01-29T13:28:34.515Z,100.00
2023-01-29T13:31:15.431Z,100.00
2023-01-29T13:33:54.450Z,100.00
2023-01-29T13:36:27.502Z,100.00
2023-01-29T13:39:01.609Z,100.00
2023-01-29T13:41:39.551Z,100.00
2023-01-29T13:44:19.888Z,100.00
2023-01-29T13:46:52.809Z,100.00
2023-01-29T13:49:36.786Z,100.00
2023-01-29T13:52:27.290Z,100.00
2023-01-29T13:55:00.401Z,100.00
2023-01-29T13:57:38.471Z,100.00
2023-01-29T14:00:33.438Z,100.00
2023-01-29T14:04:08.363Z,100.00
2023-01-29T14:06:43.491Z,100.00
2023-01-29T14:09:34.398Z,100.00
2023-01-29T14:12:03.711Z,100.00
2023-01-29T14:15:02.763Z,100.00
2023-01-29T14:17:33.545Z,100.00
2023-01-29T14:20:04.405Z,100.00
2023-01-29T14:22:34.889Z,100.00
2023-01-29T14:25:06.428Z,100.00
2023-01-29T14:27:38.156Z,100.00
2023-01-29T14:30:11.365Z,100.00
2023-01-29T14:32:41.568Z,100.00
2023-01-29T14:35:20.107Z,100.00
2023-01-29T14:37:54.290Z,100.00
2023-01-29T14:40:25.328Z,100.00
2023-01-29T14:43:02.256Z,100.00
2023-01-29T14:45:32.774Z,100.00
2023-01-29T14:48:04.022Z,100.00
2023-01-29T14:50:55.694Z,100.00
2023-01-29T14:53:32.523Z,100.00
2023-01-29T14:56:07.416Z,100.00
2023-01-29T14:58:42.868Z,100.00
2023-01-29T15:01:22.636Z,100.00
2023-01-29T15:03:54.047Z,100.00
2023-01-29T15:06:31.023Z,100.00
2023-01-29T15:09:07.890Z,100.00
2023-01-29T15:11:51.133Z,100.00
2023-01-29T15:14:26.140Z,100.00
2023-01-29T15:17:09.150Z,100.00
2023-01-29T15:19:50.858Z,100.00
2023-01-29T15:22:52.861Z,100.00
2023-01-29T15:26:15.428Z,100.00
2023-01-29T15:39:16.700Z,100.00
2023-01-29T15:41:47.653Z,100.00
2023-01-29T15:44:20.146Z,100.00
2023-01-29T15:46:54.116Z,100.00
2023-01-29T15:49:30.651Z,100.00
2023-01-29T15:52:01.005Z,100.00
2023-01-29T15:54:33.331Z,100.00
2023-01-29T15:57:03.983Z,100.00
2023-01-29T15:59:36.856Z,100.00
2023-01-29T16:02:20.727Z,100.00
2023-01-29T16:04:49.118Z,100.00
2023-01-29T16:07:17.854Z,100.00
2023-01-29T16:09:46.301Z,100.00
2023-01-29T16:12:16.268Z,100.00
2023-01-29T16:14:45.512Z,100.00
2023-01-29T16:17:26.173Z,100.00
2023-01-29T16:19:57.979Z,100.00
2023-01-29T16:22:28.163Z,100.00
2023-01-29T16:24:57.086Z,100.00
2023-01-29T16:27:27.522Z,100.00
2023-01-29T16:29:56.152Z,100.00
2023-01-29T16:32:24.955Z,100.00
2023-01-29T16:34:58.670Z,100.00
2023-01-29T16:37:30.264Z,100.00
2023-01-29T16:39:59.449Z,100.00
2023-01-29T16:42:30.292Z,100.00
2023-01-29T16:45:01.721Z,100.00
2023-01-29T16:47:33.773Z,100.00
2023-01-29T16:50:12.192Z,100.00
2023-01-29T16:52:40.614Z,100.00
2023-01-29T16:55:25.728Z,100.00
2023-01-29T16:57:57.422Z,100.00
2023-01-29T17:00:28.376Z,100.00
2023-01-29T17:03:01.912Z,100.00
2023-01-29T17:05:32.802Z,100.00
2023-01-29T17:08:01.579Z,100.00
2023-01-29T17:10:31.675Z,100.00
2023-01-29T17:13:05.639Z,100.00
2023-01-29T17:15:36.912Z,100.00
2023-01-29T17:18:13.297Z,100.00
2023-01-29T17:20:41.404Z,100.00
2023-01-29T17:23:09.842Z,100.00
2023-01-29T17:25:38.901Z,100.00
2023-01-29T17:28:11.682Z,100.00
2023-01-29T17:30:40.184Z,100.00
2023-01-29T17:33:14.845Z,100.00
2023-01-29T17:35:44.713Z,100.00
2023-01-29T17:38:24.252Z,100.00
2023-01-29T17:40:58.138Z,100.00
2023-01-29T17:43:28.046Z,100.00
2023-01-29T17:45:56.336Z,100.00
2023-01-29T17:48:27.033Z,100.00
2023-01-29T17:50:57.798Z,100.00
2023-01-29T17:53:32.965Z,100.00
2023-01-29T17:56:19.292Z,100.00
2023-01-29T17:58:49.408Z,100.00
2023-01-29T18:01:18.206Z,100.00
2023-01-29T18:03:46.812Z,100.00
2023-01-29T18:06:31.060Z,100.00
2023-01-29T18:08:59.674Z,100.00
2023-01-29T18:11:28.454Z,100.00
2023-01-29T18:13:58.973Z,100.00
2023-01-29T18:16:37.088Z,100.00
2023-01-29T18:19:13.608Z,100.00
2023-01-29T18:21:42.058Z,100.00
2023-01-29T18:24:10.464Z,100.00
2023-01-29T18:26:40.222Z,100.00
2023-01-29T18:29:10.241Z,100.00
2023-01-29T18:31:38.382Z,100.00
2023-01-29T18:34:06.868Z,100.00
2023-01-29T18:36:35.579Z,100.00
2023-01-29T18:39:04.066Z,100.00
2023-01-29T18:41:32.767Z,100.00
2023-01-29T18:44:01.446Z,100.00
2023-01-29T18:46:33.539Z,100.00
2023-01-29T18:49:01.950Z,100.00
2023-01-29T18:51:30.589Z,100.00
2023-01-29T18:53:59.062Z,100.00
2023-01-29T18:56:27.247Z,100.00
2023-01-29T18:58:56.674Z,100.00
2023-01-29T19:01:27.249Z,100.00
2023-01-29T19:03:59.483Z,100.00
2023-01-29T19:06:27.960Z,100.00
2023-01-29T19:08:56.504Z,100.00
2023-01-29T19:11:24.789Z,100.00
2023-01-29T19:13:55.523Z,100.00
2023-01-29T19:16:23.816Z,100.00
2023-01-29T19:18:55.945Z,100.00
2023-01-29T19:21:30.697Z,100.00
2023-01-29T19:23:59.279Z,100.00
2023-01-29T19:26:27.535Z,100.00
2023-01-29T19:28:56.508Z,100.00
2023-01-29T19:31:25.066Z,100.00
2023-01-29T19:33:53.487Z,100.00
2023-01-29T19:36:21.802Z,100.00
2023-01-29T19:38:52.093Z,100.00
2023-01-29T19:41:20.478Z,100.00
2023-01-29T19:43:48.953Z,100.00
2023-01-29T19:46:18.957Z,100.00
2023-01-29T19:48:47.634Z,100.00
2023-01-29T19:51:17.276Z,100.00
2023-01-29T19:53:45.840Z,100.00
2023-01-29T19:56:17.041Z,100.00
2023-01-29T19:58:45.899Z,100.00
2023-01-29T20:01:16.617Z,100.00
2023-01-29T20:03:47.873Z,100.00
2023-01-29T20:06:19.100Z,100.00
2023-01-29T20:08:47.875Z,100.00
2023-01-29T20:11:19.564Z,100.00
2023-01-29T20:13:49.836Z,100.00
2023-01-29T20:16:19.813Z,100.00
2023-01-29T20:18:48.815Z,100.00
2023-01-29T20:21:22.463Z,100.00
2023-01-29T20:23:52.307Z,100.00
2023-01-29T20:26:23.190Z,100.00
2023-01-29T20:28:51.826Z,100.00
2023-01-29T20:31:20.096Z,100.00
2023-01-29T20:33:48.518Z,100.00
2023-01-29T20:36:16.663Z,100.00
2023-01-29T20:38:45.423Z,100.00
2023-01-29T20:41:16.002Z,100.00
2023-01-29T20:43:47.271Z,100.00
2023-01-29T20:46:15.783Z,100.00
2023-01-29T20:48:44.262Z,100.00
2023-01-29T20:51:15.662Z,100.00
2023-01-29T20:53:45.992Z,100.00
2023-01-29T20:56:16.035Z,100.00
2023-01-29T20:58:47.237Z,100.00
2023-01-29T21:01:17.696Z,100.00
2023-01-29T21:03:47.557Z,100.00
2023-01-29T21:06:16.380Z,100.00
2023-01-29T21:08:45.072Z,100.00
2023-01-29T21:11:13.208Z,100.00
2023-01-29T21:13:42.706Z,100.00
2023-01-29T21:16:16.003Z,100.00
2023-01-29T21:18:44.548Z,100.00
2023-01-29T21:21:12.705Z,100.00
2023-01-29T21:23:41.584Z,100.00
2023-01-29T21:26:09.917Z,100.00
2023-01-29T21:28:38.329Z,100.00
2023-01-29T21:31:07.357Z,100.00
2023-01-29T21:33:37.166Z,100.00
2023-01-29T21:36:05.526Z,100.00
2023-01-29T21:38:34.376Z,100.00
2023-01-29T21:41:06.074Z,100.00
2023-01-29T21:43:33.806Z,100.00
2023-01-29T21:46:06.137Z,100.00
2023-01-29T21:48:36.079Z,100.00
2023-01-29T21:51:04.266Z,100.00
2023-01-29T21:53:32.921Z,100.00
2023-01-29T21:56:01.909Z,100.00
2023-01-29T21:58:30.700Z,100.00
2023-01-29T22:01:36.026Z,100.00
2023-01-29T22:03:49.112Z,100.00
2023-01-29T22:06:17.755Z,100.00
2023-01-29T22:08:46.323Z,100.00
2023-01-29T22:11:14.475Z,100.00
2023-01-29T22:13:42.980Z,100.00
2023-01-29T22:16:11.094Z,100.00
2023-01-29T22:18:39.457Z,100.00
2023-01-29T22:21:09.023Z,100.00
2023-01-29T22:23:38.070Z,100.00
2023-01-29T22:26:09.054Z,100.00
2023-01-29T22:28:37.504Z,100.00
2023-01-29T22:31:06.572Z,100.00
2023-01-29T22:33:35.088Z,100.00
2023-01-29T22:36:03.624Z,100.00
2023-01-29T22:38:33.685Z,100.00
2023-01-29T22:41:02.480Z,100.00
2023-01-29T22:43:30.867Z,100.00
2023-01-29T22:45:59.036Z,100.00
2023-01-29T22:48:28.609Z,100.00
2023-01-29T22:51:09.402Z,100.00
2023-01-29T22:53:40.738Z,100.00
2023-01-29T22:56:10.386Z,100.00
2023-01-29T22:58:39.163Z,100.00
2023-01-29T23:01:07.380Z,100.00
2023-01-29T23:03:36.160Z,100.00
2023-01-29T23:06:05.249Z,100.00
2023-01-29T23:08:34.528Z,100.00
2023-01-29T23:11:15.090Z,100.00
2023-01-29T23:13:44.595Z,100.00
2023-01-29T23:16:12.944Z,100.00
2023-01-29T23:18:41.388Z,100.00
2023-01-29T23:21:10.860Z,100.00
2023-01-29T23:23:39.854Z,100.00
2023-01-29T23:26:29.920Z,100.00
2023-01-29T23:28:58.492Z,100.00
2023-01-29T23:31:27.014Z,100.00
2023-01-29T23:33:55.441Z,100.00
2023-01-29T23:36:23.716Z,100.00
2023-01-29T23:38:52.182Z,100.00
2023-01-29T23:41:22.474Z,100.00
2023-01-29T23:43:51.097Z,100.00
2023-01-29T23:46:19.308Z,100.00
2023-01-29T23:48:48.047Z,100.00
2023-01-29T23:51:16.138Z,100.00
2023-01-29T23:53:47.670Z,100.00
2023-01-29T23:56:15.796Z,100.00
2023-01-29T23:58:46.278Z,100.00
